.
WxDataArchive / Data Records for 2015-02-16
2015-02-15 February 2015 2015-02-17

Data Records for Monday, 16 February 2015

Time	Temp	Chill	HIndex	Humid	Dewpt	 Wind 	HiWind	WindDir	Rain 	Barom
-----	----	-----	------	-----	-----	------	------	-------	-----	-----
00:00	1.5	1.5	1.5	52	-12.0	0	1	90	0.00	30.514 
00:05	1.5	1.5	1.5	52	-12.0	0	2	90	0.00	30.514 
00:10	1.5	1.5	1.5	52	-12.0	0	2	90	0.00	30.514 
00:15	1.7	1.7	1.7	51	-12.2	0	2	90	0.00	30.511 
00:20	1.7	1.7	1.7	51	-12.2	0	1	90	0.00	30.511 
00:25	1.7	1.7	1.7	51	-12.2	0	2	90	0.00	30.511 
00:30	1.7	1.7	1.7	51	-12.2	0	2	90	0.00	30.507 
00:35	1.7	1.7	1.7	51	-12.2	1	4	90	0.00	30.507 
00:40	1.8	1.8	1.8	51	-12.1	1	2	90	0.00	30.507 
00:45	1.8	1.8	1.8	51	-12.1	1	4	90	0.00	30.503 
00:50	1.8	1.8	1.8	51	-12.1	1	3	90	0.00	30.503 
00:55	1.8	1.8	1.8	50	-12.5	1	5	90	0.00	30.503 
01:00	1.8	1.8	1.8	50	-12.5	1	2	90	0.00	30.503 
01:05	1.8	1.8	1.8	49	-12.9	1	3	90	0.00	30.503 
01:10	1.8	1.8	1.8	50	-12.5	1	2	90	0.00	30.503 
01:15	1.8	1.8	1.8	50	-12.5	1	3	90	0.00	30.493 
01:20	1.8	1.8	1.8	50	-12.5	1	3	90	0.00	30.493 
01:25	1.8	1.8	1.8	49	-12.9	2	4	90	0.00	30.493 
01:30	1.8	1.8	1.8	49	-12.9	1	2	90	0.00	30.485 
01:35	2.0	2.0	2.0	49	-12.7	2	7	90	0.00	30.485 
01:40	1.8	1.8	1.8	48	-13.3	2	6	90	0.00	30.485 
01:45	2.0	2.0	2.0	48	-13.1	2	5	90	0.00	30.477 
01:50	2.0	2.0	2.0	48	-13.1	2	6	112	0.00	30.477 
01:55	1.8	1.8	1.8	48	-13.3	3	6	90	0.00	30.477 
02:00	1.8	1.8	1.8	48	-13.3	3	6	90	0.00	30.464 
02:05	1.8	1.8	1.8	48	-13.3	3	6	90	0.00	30.464 
02:10	1.8	1.8	1.8	49	-12.9	2	5	90	0.00	30.464 
02:15	1.8	1.8	1.8	49	-12.9	3	5	90	0.00	30.461 
02:20	1.8	1.8	1.8	50	-12.5	2	5	112	0.00	30.461 
02:25	1.8	1.8	1.8	50	-12.5	2	5	90	0.00	30.461 
02:30	1.8	1.8	1.8	50	-12.5	3	6	90	0.00	30.461 
02:35	1.8	1.8	1.8	51	-12.1	2	5	90	0.00	30.461 
02:40	1.8	1.8	1.8	51	-12.1	3	6	112	0.00	30.461 
02:45	1.8	1.8	1.8	52	-11.7	2	5	90	0.00	30.463 
02:50	1.8	1.8	1.8	52	-11.7	2	5	90	0.00	30.463 
02:55	1.8	1.8	1.8	52	-11.7	2	6	90	0.00	30.463 
03:00	1.8	1.8	1.8	51	-12.1	3	6	112	0.00	30.458 
03:05	1.8	1.8	1.8	51	-12.1	1	4	90	0.00	30.458 
03:10	1.8	1.8	1.8	52	-11.7	1	4	90	0.00	30.458 
03:15	2.0	2.0	2.0	51	-11.9	2	4	90	0.00	30.444 
03:20	2.0	2.0	2.0	51	-11.9	1	3	90	0.00	30.444 
03:25	2.0	2.0	2.0	51	-11.9	2	8	90	0.00	30.444 
03:30	2.0	2.0	2.0	51	-11.9	2	5	90	0.00	30.443 
03:35	2.0	2.0	2.0	52	-11.5	2	5	112	0.00	30.443 
03:40	1.8	1.8	1.8	52	-11.7	1	4	90	0.00	30.443 
03:45	1.8	1.8	1.8	52	-11.7	1	5	90	0.00	30.436 
03:50	1.8	1.8	1.8	53	-11.3	2	4	90	0.00	30.436 
03:55	1.8	1.8	1.8	53	-11.3	2	7	90	0.00	30.436 
04:00	1.8	1.8	1.8	53	-11.3	1	5	68	0.00	30.427 
04:05	1.8	1.8	1.8	54	-11.0	1	4	68	0.00	30.427 
04:10	1.8	1.8	1.8	53	-11.3	2	5	90	0.00	30.427 
04:15	1.7	1.7	1.7	53	-11.4	2	5	90	0.00	30.421 
04:20	1.7	1.7	1.7	53	-11.4	2	8	90	0.00	30.421 
04:25	1.7	1.7	1.7	54	-11.1	2	6	90	0.00	30.421 
04:30	1.5	1.5	1.5	54	-11.2	2	6	90	0.00	30.412 
04:35	1.5	1.5	1.5	54	-11.2	2	4	90	0.00	30.412 
04:40	1.7	1.7	1.7	55	-10.7	2	6	90	0.00	30.412 
04:45	1.5	1.5	1.5	55	-10.9	3	6	90	0.00	30.401 
04:50	1.5	1.5	1.5	56	-10.5	1	4	90	0.00	30.401 
04:55	1.5	1.5	1.5	57	-10.2	2	4	90	0.00	30.401 
05:00	1.5	1.5	1.5	58	-9.8	1	5	90	0.00	30.394 
05:05	1.5	1.5	1.5	58	-9.8	1	5	90	0.00	30.394 
05:10	1.3	1.3	1.3	58	-10.0	2	5	90	0.00	30.394 
05:15	1.3	1.3	1.3	58	-10.0	2	6	90	0.00	30.386 
05:20	1.1	1.1	1.1	58	-10.2	1	4	112	0.00	30.386 
05:25	1.1	1.1	1.1	59	-9.8	2	6	112	0.00	30.386 
05:30	1.1	1.1	1.1	58	-10.2	2	6	112	0.00	30.383 
05:35	0.9	0.9	0.9	59	-10.0	1	6	112	0.00	30.383 
05:40	1.1	1.1	1.1	59	-9.8	2	6	112	0.00	30.383 
05:45	1.1	1.1	1.1	59	-9.8	3	6	90	0.00	30.377 
05:50	0.9	0.9	0.9	59	-10.0	3	7	90	0.00	30.377 
05:55	1.1	1.1	1.1	60	-9.5	1	3	90	0.00	30.377 
06:00	1.1	1.1	1.1	60	-9.5	2	5	90	0.00	30.370 
06:05	1.1	1.1	1.1	60	-9.5	3	6	90	0.00	30.370 
06:10	1.1	1.1	1.1	60	-9.5	3	6	112	0.00	30.370 
06:15	1.1	1.1	1.1	61	-9.2	2	5	90	0.00	30.371 
06:20	1.3	1.3	1.3	61	-9.0	1	5	90	0.00	30.371 
06:25	1.3	1.3	1.3	62	-8.6	2	5	90	0.00	30.371 
06:30	1.3	1.3	1.3	62	-8.6	3	6	90	0.00	30.371 
06:35	1.3	1.3	1.3	62	-8.6	3	6	90	0.00	30.371 
06:40	1.3	1.3	1.3	62	-8.6	1	3	90	0.00	30.371 
06:45	1.5	1.5	1.5	62	-8.5	2	7	90	0.00	30.370 
06:50	1.3	1.3	1.3	63	-8.3	2	5	90	0.00	30.370 
06:55	1.5	1.5	1.5	63	-8.1	2	6	90	0.00	30.370 
07:00	1.5	1.5	1.5	63	-8.1	1	3	90	0.00	30.364 
07:05	1.5	1.5	1.5	63	-8.1	2	5	90	0.00	30.364 
07:10	1.5	-7.2	1.5	63	-8.1	4	7	90	0.00	30.364 
07:15	1.5	1.5	1.5	64	-7.8	2	6	90	0.00	30.354 
07:20	1.5	1.5	1.5	64	-7.8	3	6	90	0.00	30.354 
07:25	1.5	1.5	1.5	64	-7.8	3	7	90	0.00	30.354 
07:30	1.7	1.7	1.7	64	-7.6	2	6	90	0.00	30.352 
07:35	1.7	1.7	1.7	64	-7.6	3	6	112	0.00	30.352 
07:40	1.7	1.7	1.7	64	-7.6	3	7	90	0.00	30.352 
07:45	1.7	1.7	1.7	65	-7.3	2	5	90	0.00	30.359 
07:50	1.8	1.8	1.8	65	-7.2	2	5	90	0.00	30.359 
07:55	1.8	1.8	1.8	65	-7.2	1	3	90	0.00	30.359 
08:00	2.0	2.0	2.0	65	-7.0	2	6	90	0.00	30.354 
08:05	2.0	2.0	2.0	65	-7.0	2	6	90	0.00	30.354 
08:10	2.2	2.2	2.2	65	-6.8	2	5	90	0.00	30.354 
08:15	2.2	2.2	2.2	65	-6.8	2	5	90	0.00	30.345 
08:20	2.4	2.4	2.4	65	-6.6	3	5	112	0.00	30.345 
08:25	2.6	2.6	2.6	64	-6.8	3	7	90	0.00	30.345 
08:30	2.6	2.6	2.6	63	-7.1	3	7	90	0.00	30.335 
08:35	2.6	2.6	2.6	64	-6.8	2	6	90	0.00	30.335 
08:40	2.6	-5.9	2.6	63	-7.1	4	9	90	0.00	30.335 
08:45	2.8	2.8	2.8	63	-6.9	3	7	90	0.00	30.337 
08:50	3.0	3.0	3.0	63	-6.7	3	5	112	0.00	30.337 
08:55	3.0	3.0	3.0	63	-6.7	3	7	112	0.00	30.337 
09:00	3.0	-5.4	3.0	63	-6.7	4	7	112	0.00	30.331 
09:05	3.0	3.0	3.0	63	-6.7	3	6	90	0.00	30.331 
09:10	3.2	3.2	3.2	63	-6.5	3	9	112	0.00	30.331 
09:15	3.2	-5.2	3.2	63	-6.5	4	9	90	0.00	30.333 
09:20	3.4	3.4	3.4	64	-6.0	3	6	90	0.00	30.333 
09:25	3.5	3.5	3.5	64	-5.9	2	6	90	0.00	30.333 
09:30	3.7	3.7	3.7	63	-6.0	2	5	90	0.00	30.331 
09:35	3.7	3.7	3.7	63	-6.0	3	6	112	0.00	30.331 
09:40	3.7	3.7	3.7	63	-6.0	3	6	90	0.00	30.331 
09:45	3.7	3.7	3.7	63	-6.0	3	7	90	0.00	30.319 
09:50	4.1	4.1	4.1	64	-5.3	2	5	112	0.00	30.319 
09:55	4.1	-4.2	4.1	63	-5.7	4	9	112	0.00	30.319 
10:00	4.3	4.3	4.3	63	-5.5	3	7	112	0.00	30.316 
10:05	4.3	-3.9	4.3	62	-5.8	4	9	112	0.00	30.316 
10:10	4.3	4.3	4.3	63	-5.5	2	6	90	0.00	30.316 
10:15	4.5	4.5	4.5	62	-5.6	3	6	112	0.00	30.312 
10:20	4.7	4.7	4.7	62	-5.4	2	7	112	0.00	30.312 
10:25	4.8	4.8	4.8	62	-5.3	3	7	90	0.00	30.312 
10:30	4.8	4.8	4.8	62	-5.3	3	6	112	0.00	30.306 
10:35	5.0	5.0	5.0	62	-5.1	3	7	112	0.00	30.306 
10:40	5.0	-3.1	5.0	62	-5.1	4	10	90	0.00	30.306 
10:45	5.2	5.2	5.2	62	-4.9	3	5	112	0.00	30.299 
10:50	5.2	5.2	5.2	62	-4.9	3	7	90	0.00	30.299 
10:55	5.4	-2.6	5.4	61	-5.1	4	8	90	0.00	30.299 
11:00	5.4	-2.6	5.4	61	-5.1	4	9	112	0.00	30.296 
11:05	5.6	5.6	5.6	61	-4.9	3	6	90	0.00	30.296 
11:10	5.8	-2.2	5.8	61	-4.7	4	7	90	0.00	30.296 
11:15	5.8	5.8	5.8	60	-5.1	3	7	90	0.00	30.284 
11:20	5.8	-2.2	5.8	60	-5.1	4	13	90	0.00	30.284 
11:25	6.0	6.0	6.0	61	-4.5	2	5	90	0.00	30.284 
11:30	6.1	6.1	6.1	60	-4.8	3	7	90	0.00	30.273 
11:35	6.3	6.3	6.3	60	-4.6	2	6	112	0.00	30.273 
11:40	6.5	6.5	6.5	59	-4.7	2	7	112	0.00	30.273 
11:45	6.7	6.7	6.7	59	-4.5	3	9	112	0.00	30.270 
11:50	6.7	6.7	6.7	59	-4.5	2	6	112	0.00	30.270 
11:55	6.5	6.5	6.5	58	-5.1	3	9	90	0.00	30.270 
12:00	6.7	6.7	6.7	59	-4.5	2	5	90	0.00	30.269 
12:05	7.0	7.0	7.0	59	-4.3	3	5	90	0.00	30.269 
12:10	6.9	6.9	6.9	58	-4.7	3	9	112	0.00	30.269 
12:15	6.7	-1.1	6.7	58	-4.9	4	9	90	0.00	30.266 
12:20	6.7	6.7	6.7	58	-4.9	3	10	90	0.00	30.266 
12:25	6.9	6.9	6.9	59	-4.4	2	6	90	0.00	30.266 
12:30	7.0	7.0	7.0	59	-4.3	2	6	90	0.00	30.257 
12:35	7.0	7.0	7.0	58	-4.6	3	5	90	0.00	30.257 
12:40	7.0	7.0	7.0	58	-4.6	3	6	90	0.00	30.257 
12:45	6.9	-0.9	6.9	58	-4.7	4	8	112	0.00	30.245 
12:50	6.9	6.9	6.9	58	-4.7	3	6	90	0.00	30.245 
12:55	6.9	6.9	6.9	58	-4.7	3	7	90	0.00	30.245 
13:00	7.2	7.2	7.2	59	-4.1	3	10	112	0.00	30.232 
13:05	7.4	7.4	7.4	59	-3.9	3	6	90	0.00	30.232 
13:10	7.6	7.6	7.6	59	-3.7	2	4	112	0.00	30.232 
13:15	7.9	7.9	7.9	59	-3.4	2	7	90	0.00	30.219 
13:20	7.7	7.7	7.7	58	-4.0	2	7	90	0.00	30.219 
13:25	7.7	7.7	7.7	58	-4.0	2	10	112	0.00	30.219 
13:30	7.6	-0.1	7.6	59	-3.7	4	7	90	0.00	30.208 
13:35	7.7	7.7	7.7	59	-3.6	2	6	112	0.00	30.208 
13:40	7.7	7.7	7.7	59	-3.6	3	10	112	0.00	30.208 
13:45	7.9	7.9	7.9	58	-3.8	3	6	112	0.00	30.196 
13:50	7.9	7.9	7.9	59	-3.4	2	9	112	0.00	30.196 
13:55	7.9	7.9	7.9	58	-3.8	2	9	112	0.00	30.196 
14:00	7.9	7.9	7.9	58	-3.8	3	6	90	0.00	30.187 
14:05	7.9	7.9	7.9	58	-3.8	3	6	90	0.00	30.187 
14:10	7.9	7.9	7.9	58	-3.8	2	5	112	0.00	30.187 
14:15	8.3	8.3	8.3	59	-3.0	2	7	90	0.00	30.177 
14:20	8.1	8.1	8.1	58	-3.6	3	11	112	0.00	30.177 
14:25	8.1	8.1	8.1	58	-3.6	3	9	90	0.00	30.177 
14:30	8.3	8.3	8.3	59	-3.0	2	5	90	0.00	30.162 
14:35	8.3	8.3	8.3	58	-3.4	2	7	90	0.00	30.162 
14:40	8.3	8.3	8.3	58	-3.4	2	6	90	0.00	30.162 
14:45	8.1	8.1	8.1	57	-3.9	3	9	90	0.00	30.154 
14:50	8.1	8.1	8.1	57	-3.9	2	5	90	0.00	30.154 
14:55	8.1	8.1	8.1	58	-3.6	2	6	90	0.00	30.154 
15:00	8.3	8.3	8.3	59	-3.0	1	5	90	0.00	30.143 
15:05	8.6	8.6	8.6	58	-3.1	1	5	0	0.00	30.143 
15:10	8.6	8.6	8.6	58	-3.1	2	5	90	0.00	30.143 
15:15	8.8	8.8	8.8	58	-2.9	1	6	68	0.00	30.139 
15:20	8.6	8.6	8.6	56	-3.8	3	9	112	0.00	30.139 
15:25	8.6	8.6	8.6	56	-3.8	1	3	90	0.00	30.139 
15:30	8.6	8.6	8.6	55	-4.2	1	5	68	0.00	30.127 
15:35	9.0	9.0	9.0	55	-3.8	1	5	90	0.00	30.127 
15:40	9.0	9.0	9.0	56	-3.5	2	6	112	0.00	30.127 
15:45	9.2	9.2	9.2	56	-3.3	1	4	112	0.00	30.124 
15:50	9.2	9.2	9.2	57	-2.9	1	6	90	0.00	30.124 
15:55	9.2	9.2	9.2	57	-2.9	1	5	90	0.00	30.124 
16:00	9.0	9.0	9.0	56	-3.5	3	7	90	0.00	30.125 
16:05	9.0	9.0	9.0	56	-3.5	2	7	112	0.00	30.125 
16:10	9.0	9.0	9.0	56	-3.5	1	4	112	0.00	30.125 
16:15	9.0	9.0	9.0	58	-2.7	2	5	90	0.00	30.120 
16:20	8.8	8.8	8.8	57	-3.3	2	6	90	0.00	30.120 
16:25	8.6	8.6	8.6	58	-3.1	1	6	90	0.00	30.120 
16:30	8.6	8.6	8.6	58	-3.1	2	7	112	0.00	30.117 
16:35	8.6	8.6	8.6	59	-2.8	1	4	112	0.00	30.117 
16:40	8.6	8.6	8.6	59	-2.8	1	5	90	0.00	30.117 
16:45	8.6	8.6	8.6	59	-2.8	1	4	90	0.00	30.108 
16:50	8.6	8.6	8.6	60	-2.4	0	3	112	0.00	30.108 
16:55	8.4	8.4	8.4	59	-2.9	1	4	90	0.00	30.108 
17:00	8.4	8.4	8.4	60	-2.6	1	4	90	0.00	30.109 
17:05	8.3	8.3	8.3	60	-2.7	1	4	22	0.00	30.109 
17:10	8.3	8.3	8.3	60	-2.7	0	4	45	0.00	30.109 
17:15	7.9	7.9	7.9	60	-3.1	2	7	112	0.00	30.110 
17:20	7.9	7.9	7.9	61	-2.7	1	5	90	0.00	30.110 
17:25	7.7	7.7	7.7	61	-2.9	0	2	45	0.00	30.110 
17:30	7.7	7.7	7.7	61	-2.9	1	4	112	0.00	30.110 
17:35	7.7	7.7	7.7	61	-2.9	1	3	45	0.00	30.110 
17:40	7.6	7.6	7.6	61	-3.0	1	3	90	0.00	30.110 
17:45	7.4	7.4	7.4	61	-3.2	0	3	90	0.00	30.110 
17:50	7.4	7.4	7.4	61	-3.2	0	1	68	0.00	30.110 
17:55	7.2	7.2	7.2	61	-3.4	0	3	68	0.00	30.110 
18:00	7.2	7.2	7.2	60	-3.7	2	6	90	0.00	30.109 
18:05	7.0	7.0	7.0	60	-3.9	1	5	90	0.00	30.109 
18:10	7.0	7.0	7.0	60	-3.9	0	3	68	0.00	30.109 
18:15	7.0	7.0	7.0	59	-4.3	1	4	90	0.00	30.111 
18:20	7.0	7.0	7.0	59	-4.3	1	4	112	0.00	30.111 
18:25	7.0	7.0	7.0	59	-4.3	2	5	90	0.00	30.111 
18:30	7.0	7.0	7.0	60	-3.9	1	4	90	0.00	30.110 
18:35	7.0	7.0	7.0	59	-4.3	1	4	90	0.00	30.110 
18:40	7.0	7.0	7.0	59	-4.3	1	3	90	0.00	30.110 
18:45	7.0	7.0	7.0	58	-4.6	0	2	112	0.00	30.111 
18:50	7.0	7.0	7.0	58	-4.6	0	4	112	0.00	30.111 
18:55	7.0	7.0	7.0	58	-4.6	0	2	112	0.00	30.111 
19:00	7.0	7.0	7.0	58	-4.6	0	2	112	0.00	30.109 
19:05	7.0	7.0	7.0	58	-4.6	0	3	90	0.00	30.109 
19:10	7.0	7.0	7.0	58	-4.6	0	2	90	0.00	30.109 
19:15	7.0	7.0	7.0	58	-4.6	0	2	90	0.00	30.105 
19:20	7.0	7.0	7.0	59	-4.3	0	2	90	0.00	30.105 
19:25	6.9	6.9	6.9	59	-4.4	0	2	90	0.00	30.105 
19:30	6.9	6.9	6.9	59	-4.4	0	2	90	0.00	30.104 
19:35	6.9	6.9	6.9	59	-4.4	0	1	90	0.00	30.104 
19:40	6.7	6.7	6.7	59	-4.5	0	1	90	0.00	30.104 
19:45	6.7	6.7	6.7	59	-4.5	0	1	90	0.00	30.104 
19:50	6.5	6.5	6.5	58	-5.1	0	1	90	0.00	30.104 
19:55	6.5	6.5	6.5	58	-5.1	0	1	90	0.00	30.104 
20:00	6.3	6.3	6.3	58	-5.3	0	1	90	0.00	30.099 
20:05	6.3	6.3	6.3	58	-5.3	0	2	90	0.00	30.099 
20:10	6.3	6.3	6.3	58	-5.3	0	1	90	0.00	30.099 
20:15	6.1	6.1	6.1	58	-5.5	0	1	90	0.00	30.094 
20:20	6.1	6.1	6.1	58	-5.5	0	0	---	0.00	30.094 
20:25	6.0	6.0	6.0	58	-5.6	0	1	90	0.00	30.094 
20:30	6.0	6.0	6.0	58	-5.6	0	2	90	0.00	30.082 
20:35	6.0	6.0	6.0	58	-5.6	0	1	90	0.00	30.082 
20:40	5.8	5.8	5.8	58	-5.8	0	1	90	0.00	30.082 
20:45	5.8	5.8	5.8	58	-5.8	0	1	90	0.00	30.081 
20:50	5.6	5.6	5.6	58	-5.9	0	0	---	0.00	30.081 
20:55	5.4	5.4	5.4	58	-6.1	0	0	---	0.00	30.081 
21:00	5.2	5.2	5.2	58	-6.3	0	0	---	0.00	30.086 
21:05	5.0	5.0	5.0	59	-6.2	0	0	---	0.00	30.086 
21:10	5.0	5.0	5.0	59	-6.2	0	1	112	0.00	30.086 
21:15	4.8	4.8	4.8	59	-6.3	0	0	---	0.00	30.077 
21:20	4.7	4.7	4.7	59	-6.4	0	0	---	0.00	30.077 
21:25	4.5	4.5	4.5	60	-6.3	0	0	---	0.00	30.077 
21:30	4.3	4.3	4.3	60	-6.5	0	0	---	0.00	30.078 
21:35	4.3	4.3	4.3	60	-6.5	0	0	---	0.00	30.078 
21:40	4.1	4.1	4.1	61	-6.3	0	0	---	0.00	30.078 
21:45	3.9	3.9	3.9	61	-6.5	0	0	---	0.00	30.078 
21:50	3.7	3.7	3.7	61	-6.7	0	0	---	0.00	30.078 
21:55	3.5	3.5	3.5	61	-6.9	0	0	---	0.00	30.078 
22:00	3.5	3.5	3.5	62	-6.6	0	0	---	0.00	30.078 
22:05	3.4	3.4	3.4	62	-6.7	0	0	---	0.00	30.078 
22:10	3.2	3.2	3.2	63	-6.5	0	0	---	0.00	30.078 
22:15	3.2	3.2	3.2	63	-6.5	0	0	---	0.00	30.075 
22:20	3.2	3.2	3.2	64	-6.2	0	0	---	0.00	30.075 
22:25	3.2	3.2	3.2	64	-6.2	0	0	---	0.00	30.075 
22:30	3.0	3.0	3.0	64	-6.4	0	0	---	0.00	30.076 
22:35	3.0	3.0	3.0	65	-6.1	0	0	---	0.00	30.076 
22:40	3.0	3.0	3.0	65	-6.1	0	0	---	0.00	30.076 
22:45	2.8	2.8	2.8	65	-6.3	0	0	---	0.00	30.076 
22:50	2.6	2.6	2.6	66	-6.1	0	0	---	0.00	30.076 
22:55	2.6	2.6	2.6	66	-6.1	0	0	---	0.00	30.076 
23:00	2.4	2.4	2.4	66	-6.3	0	0	---	0.00	30.078 
23:05	2.2	2.2	2.2	67	-6.2	0	0	---	0.00	30.078 
23:10	2.2	2.2	2.2	67	-6.2	0	0	---	0.00	30.078 
23:15	2.0	2.0	2.0	68	-6.1	0	0	---	0.00	30.067 
23:20	2.0	2.0	2.0	68	-6.1	0	0	---	0.00	30.067 
23:25	1.8	1.8	1.8	68	-6.3	0	0	---	0.00	30.067 
23:30	1.8	1.8	1.8	68	-6.3	0	0	---	0.00	30.066 
23:35	1.7	1.7	1.7	68	-6.4	0	0	---	0.00	30.066 
23:40	1.7	1.7	1.7	69	-6.1	0	0	---	0.00	30.066 
23:45	1.5	1.5	1.5	69	-6.3	0	0	---	0.00	30.064 
23:50	1.5	1.5	1.5	69	-6.3	0	0	---	0.00	30.064 
23:55	1.5	1.5	1.5	69	-6.3	0	0	---	0.00	30.064 

CoCoRaHS
IN-AL-39
A2 Web Hosting
Creative Commons License
GoDaddy
search engine by freefind advanced

loaded 2018-11-15 18:36:40 • last modified 2010-11-18 10:43:29
Privacy PolicyDisclaimer
• wx.awcolley.com is powered by PmWiki v.2002016 •
• all content (unless otherwise noted) © 2018 A W Colley